Time;durP1;ratioP1;P1;durP2;ratioP2;P2;SDS_P1;SDS_P2;PMS_P1;PMS_P2;Temp;Humidity;BMP_temperature;BMP_pressure;BME280_temperature;BME280_humidity;BME280_pressure;Samples;Min_cycle;Max_cycle;Signal;HPM_P1;HPM_P2
2022/10/06 00:01:49;;;;;;;3.47;2.20;;;;;;;5.73;100.00;94328.56;5132498;27;20047;-70
2022/10/06 00:04:16;;;;;;;3.38;1.95;;;;;;;5.73;100.00;94333.69;5132226;27;20081;-70
2022/10/06 00:06:44;;;;;;;3.42;2.83;;;;;;;5.66;100.00;94333.50;5132281;27;20039;-70
2022/10/06 00:09:11;;;;;;;3.10;1.95;;;;;;;5.58;100.00;94325.78;5124768;27;20437;-70
2022/10/06 00:11:37;;;;;;;3.30;1.88;;;;;;;5.57;100.00;94326.75;5091082;28;20121;-70
2022/10/06 00:14:05;;;;;;;3.10;2.25;;;;;;;5.51;100.00;94328.13;5090674;28;20384;-70
2022/10/06 00:16:31;;;;;;;3.55;2.20;;;;;;;5.46;100.00;94327.81;5090668;28;20105;-70
2022/10/06 00:18:58;;;;;;;3.65;2.33;;;;;;;5.43;100.00;94333.19;5090995;28;20040;-70
2022/10/06 00:21:25;;;;;;;4.60;2.95;;;;;;;5.36;100.00;94322.78;5089286;28;20050;-69
2022/10/06 00:23:53;;;;;;;3.83;2.60;;;;;;;5.35;100.00;94326.28;5088071;28;20707;-69
2022/10/06 00:26:20;;;;;;;4.18;2.60;;;;;;;5.32;100.00;94322.31;5089347;28;20495;-69
2022/10/06 00:28:47;;;;;;;4.68;2.65;;;;;;;5.29;100.00;94304.78;5090180;28;20441;-69
2022/10/06 00:31:14;;;;;;;4.43;2.78;;;;;;;5.39;100.00;94319.97;5090411;28;20141;-69
2022/10/06 00:33:41;;;;;;;4.18;2.88;;;;;;;5.41;100.00;94324.91;5089998;28;20044;-69
2022/10/06 00:36:08;;;;;;;4.30;2.70;;;;;;;5.43;100.00;94313.63;5090354;28;20047;-69
2022/10/06 00:38:35;;;;;;;4.03;2.42;;;;;;;5.40;100.00;94315.66;5089891;28;20036;-69
2022/10/06 00:41:03;;;;;;;3.03;2.40;;;;;;;5.38;100.00;94320.91;5090237;28;20109;-69
2022/10/06 00:43:42;;;;;;;3.33;2.10;;;;;;;5.34;100.00;94317.84;5089940;28;20090;-69
2022/10/06 00:46:12;;;;;;;3.42;2.30;;;;;;;5.38;100.00;94315.00;5093736;28;20044;-69
2022/10/06 00:48:39;;;;;;;3.28;2.03;;;;;;;5.30;100.00;94301.28;5110238;28;20043;-70
2022/10/06 00:51:06;;;;;;;3.42;2.05;;;;;;;5.30;100.00;94298.72;5110403;28;20377;-70
2022/10/06 00:53:33;;;;;;;3.55;1.75;;;;;;;5.36;100.00;94310.06;5110328;28;20418;-69
2022/10/06 00:56:00;;;;;;;3.65;2.08;;;;;;;5.36;100.00;94304.97;5110350;28;20044;-69
2022/10/06 00:58:28;;;;;;;3.25;1.95;;;;;;;5.31;100.00;94302.88;5113465;27;20544;-69
2022/10/06 01:00:56;;;;;;;2.95;1.60;;;;;;;5.28;100.00;94292.19;5131202;27;20084;-69
2022/10/06 01:03:28;;;;;;;4.70;2.35;;;;;;;5.27;100.00;94283.72;5131069;27;20100;-69
2022/10/06 01:05:56;;;;;;;4.10;2.00;;;;;;;5.28;100.00;94280.22;5131396;27;20104;-69
2022/10/06 01:08:23;;;;;;;2.63;1.90;;;;;;;5.15;100.00;94272.19;5129971;27;20047;-69
2022/10/06 01:10:50;;;;;;;3.60;1.90;;;;;;;5.14;100.00;94285.88;5131096;27;20043;-69
2022/10/06 01:13:18;;;;;;;3.72;2.28;;;;;;;5.14;100.00;94288.44;5131167;27;20112;-69
2022/10/06 01:15:52;;;;;;;3.47;2.20;;;;;;;5.12;100.00;94277.56;5130674;27;20100;-69
2022/10/06 01:18:22;;;;;;;2.47;1.85;;;;;;;5.07;100.00;94283.94;5123834;27;20047;-69
2022/10/06 01:20:56;;;;;;;2.33;1.85;;;;;;;5.07;100.00;94278.03;5115731;27;20043;-69
2022/10/06 01:23:24;;;;;;;3.45;1.70;;;;;;;5.05;100.00;94277.41;5125121;27;20093;-69
2022/10/06 01:25:51;;;;;;;2.55;1.73;;;;;;;5.04;100.00;94270.69;5109991;28;20043;-69
2022/10/06 01:28:17;;;;;;;2.80;1.80;;;;;;;5.02;100.00;94273.41;5107202;28;20048;-69
2022/10/06 01:30:51;;;;;;;3.03;1.70;;;;;;;5.04;100.00;94271.50;5089024;28;20082;-69
2022/10/06 01:33:18;;;;;;;2.75;1.75;;;;;;;5.04;100.00;94279.13;5088942;28;20075;-69
2022/10/06 01:35:47;;;;;;;3.22;1.88;;;;;;;4.97;100.00;94273.03;5089185;28;20055;-69
2022/10/06 01:38:14;;;;;;;4.38;1.70;;;;;;;4.97;100.00;94269.69;5107031;28;20044;-69
2022/10/06 01:40:42;;;;;;;2.17;1.50;;;;;;;4.86;100.00;94265.63;5109319;28;20043;-69
2022/10/06 01:43:09;;;;;;;3.72;1.70;;;;;;;4.79;100.00;94263.69;5109207;28;20039;-69
2022/10/06 01:45:36;;;;;;;2.50;1.70;;;;;;;4.75;100.00;94261.56;5109556;28;20051;-70
2022/10/06 01:48:03;;;;;;;2.50;1.75;;;;;;;4.71;100.00;94260.28;5096002;28;20438;-70
2022/10/06 01:50:29;;;;;;;4.18;1.70;;;;;;;4.66;100.00;94260.69;5089156;28;20093;-70
2022/10/06 01:52:56;;;;;;;2.50;1.42;;;;;;;4.62;100.00;94262.75;5088998;28;20442;-69
2022/10/06 01:55:23;;;;;;;2.88;1.90;;;;;;;4.58;100.00;94263.97;5088957;28;20036;-70
2022/10/06 01:57:51;;;;;;;3.10;2.10;;;;;;;4.54;100.00;94253.28;5088781;28;20545;-70
2022/10/06 02:00:19;;;;;;;3.25;2.35;;;;;;;4.44;100.00;94249.25;5089231;28;20047;-70
2022/10/06 02:02:46;;;;;;;5.20;3.50;;;;;;;4.49;100.00;94263.09;5089235;28;20056;-70
2022/10/06 02:05:13;;;;;;;5.53;3.45;;;;;;;4.47;100.00;94269.28;5106818;28;20040;-69
2022/10/06 02:07:40;;;;;;;4.88;3.25;;;;;;;4.47;100.00;94262.47;5108894;28;20100;-69
2022/10/06 02:10:07;;;;;;;4.30;2.80;;;;;;;4.51;100.00;94260.44;5109346;28;20104;-69
2022/10/06 02:12:34;;;;;;;4.18;2.88;;;;;;;4.53;100.00;94258.53;5109437;28;20191;-69
2022/10/06 02:15:02;;;;;;;4.15;2.67;;;;;;;4.53;100.00;94266.97;5095975;28;20040;-69
2022/10/06 02:17:29;;;;;;;4.00;2.42;;;;;;;4.49;100.00;94259.78;5089124;28;20052;-69
2022/10/06 02:19:56;;;;;;;4.53;2.90;;;;;;;4.51;100.00;94262.97;5101923;28;20040;-69
2022/10/06 02:22:23;;;;;;;5.93;3.22;;;;;;;4.51;100.00;94261.22;5113426;28;20048;-69
2022/10/06 02:24:49;;;;;;;5.35;3.33;;;;;;;4.53;100.00;94259.34;5113483;28;20440;-69
2022/10/06 02:27:16;;;;;;;8.15;4.03;;;;;;;4.53;100.00;94264.41;5113772;28;20051;-69
2022/10/06 02:29:43;;;;;;;4.50;3.08;;;;;;;4.59;100.00;94255.41;5113377;28;20438;-69
2022/10/06 02:32:11;;;;;;;7.90;3.55;;;;;;;4.63;100.00;94254.16;5113394;28;20071;-70
2022/10/06 02:34:38;;;;;;;9.40;5.10;;;;;;;4.66;100.00;94256.41;5113119;28;20452;-70
2022/10/06 02:37:05;;;;;;;7.32;4.32;;;;;;;4.67;100.00;94258.00;5113185;28;20052;-70
2022/10/06 02:39:32;;;;;;;6.68;3.80;;;;;;;4.65;100.00;94259.91;5113130;28;20051;-70
2022/10/06 02:41:58;;;;;;;6.10;3.70;;;;;;;4.54;100.00;94242.34;5112825;28;20611;-70
2022/10/06 02:44:25;;;;;;;5.38;3.60;;;;;;;4.68;100.00;94264.69;5113087;28;20043;-70
2022/10/06 02:46:52;;;;;;;5.90;3.35;;;;;;;4.66;100.00;94258.97;5113060;28;20085;-70
2022/10/06 02:49:20;;;;;;;4.15;2.42;;;;;;;4.66;100.00;94255.59;5112939;28;20043;-70
2022/10/06 02:51:47;;;;;;;3.65;2.47;;;;;;;4.67;100.00;94259.75;5113038;28;20172;-70
2022/10/06 02:54:14;;;;;;;7.80;2.78;;;;;;;4.64;100.00;94260.84;5112588;28;20047;-70
2022/10/06 02:56:40;;;;;;;5.45;3.20;;;;;;;4.58;100.00;94258.88;5112332;28;20058;-69
2022/10/06 02:59:07;;;;;;;4.65;3.90;;;;;;;4.53;100.00;94264.41;5112577;28;20571;-69
2022/10/06 03:01:34;;;;;;;4.30;2.90;;;;;;;4.53;100.00;94258.53;5112635;28;20039;-69
2022/10/06 03:04:01;;;;;;;4.65;3.30;;;;;;;4.50;100.00;94257.06;5112517;28;20085;-69
2022/10/06 03:06:30;;;;;;;3.92;3.38;;;;;;;4.49;100.00;94255.47;5112633;28;20051;-69
2022/10/06 03:08:58;;;;;;;4.07;2.28;;;;;;;4.51;100.00;94257.88;5112569;28;20047;-69
2022/10/06 03:11:28;;;;;;;3.58;2.40;;;;;;;4.49;100.00;94255.47;5112607;28;20092;-69
2022/10/06 03:13:55;;;;;;;6.00;2.78;;;;;;;4.52;100.00;94262.81;5112343;28;20560;-69
2022/10/06 03:16:24;;;;;;;3.05;2.08;;;;;;;4.51;100.00;94260.44;5112213;28;20059;-70
2022/10/06 03:18:52;;;;;;;3.20;2.20;;;;;;;4.49;100.00;94262.31;5112376;28;20089;-69
2022/10/06 03:21:21;;;;;;;3.92;2.17;;;;;;;4.49;100.00;94262.31;5112181;28;20044;-69
2022/10/06 03:23:52;;;;;;;4.15;2.22;;;;;;;4.50;100.00;94262.16;5112330;28;20055;-69
2022/10/06 03:26:21;;;;;;;3.30;2.13;;;;;;;4.53;100.00;94256.78;5112112;28;20550;-69
2022/10/06 03:28:48;;;;;;;2.75;1.98;;;;;;;4.53;100.00;94261.88;5112282;28;20047;-69
2022/10/06 03:31:16;;;;;;;4.25;2.60;;;;;;;4.53;100.00;94255.97;5110856;28;20536;-70
2022/10/06 03:33:43;;;;;;;3.60;2.17;;;;;;;4.51;100.00;94250.25;5112056;28;20128;-70
2022/10/06 03:36:11;;;;;;;4.38;2.00;;;;;;;4.47;100.00;94259.09;5112095;28;20047;-69
2022/10/06 03:38:38;;;;;;;6.13;2.15;;;;;;;4.37;100.00;94238.84;5111758;28;20044;-69
2022/10/06 03:41:08;;;;;;;4.22;2.17;;;;;;;4.32;100.00;94251.19;5111992;28;20479;-69
2022/10/06 03:43:36;;;;;;;2.90;2.13;;;;;;;4.39;100.00;94257.28;5111752;28;20051;-70
2022/10/06 03:46:04;;;;;;;2.95;2.00;;;;;;;4.38;100.00;94255.69;5111841;28;20039;-69
2022/10/06 03:48:33;;;;;;;2.58;1.83;;;;;;;4.37;100.00;94242.19;5111814;28;20051;-69
2022/10/06 03:51:02;;;;;;;3.75;2.30;;;;;;;4.37;100.00;94246.47;5111521;28;20047;-69
2022/10/06 03:53:30;;;;;;;4.55;2.50;;;;;;;4.35;100.00;94241.53;5111640;28;20093;-69
2022/10/06 03:56:02;;;;;;;4.75;2.85;;;;;;;4.29;100.00;94226.84;5111590;28;20522;-69
2022/10/06 03:58:31;;;;;;;5.15;2.83;;;;;;;4.39;100.00;94240.28;5111323;28;20532;-69
2022/10/06 04:01:02;;;;;;;4.40;2.50;;;;;;;4.38;100.00;94248.06;5111396;28;20491;-69
2022/10/06 04:03:29;;;;;;;4.40;2.30;;;;;;;4.33;100.00;94247.69;5111701;28;20100;-69
2022/10/06 04:05:58;;;;;;;4.00;1.65;;;;;;;4.23;100.00;94240.94;5111660;28;20449;-69
2022/10/06 04:08:25;;;;;;;5.40;2.20;;;;;;;4.08;100.00;94227.13;5111537;28;20140;-69
2022/10/06 04:10:52;;;;;;;4.30;2.90;;;;;;;4.10;100.00;94241.31;5111416;28;20085;-69
2022/10/06 04:13:19;;;;;;;4.40;3.20;;;;;;;4.10;100.00;94236.22;5111078;28;20043;-70
2022/10/06 04:15:48;;;;;;;7.80;3.63;;;;;;;4.10;100.00;94232.84;5111222;28;20093;-69
2022/10/06 04:18:16;;;;;;;11.85;6.95;;;;;;;3.99;100.00;94226.25;5111264;28;20051;-69
2022/10/06 04:20:42;;;;;;;12.93;8.80;;;;;;;3.94;100.00;94229.19;5110768;28;20499;-69
2022/10/06 04:23:10;;;;;;;8.77;6.47;;;;;;;3.87;100.00;94238.34;5111139;28;20047;-69
2022/10/06 04:25:36;;;;;;;9.43;6.47;;;;;;;3.80;100.00;94234.78;5110878;28;20039;-69
2022/10/06 04:28:03;;;;;;;12.13;6.68;;;;;;;3.75;100.00;94237.72;5110992;28;20089;-69
2022/10/06 04:30:30;;;;;;;9.82;6.07;;;;;;;3.78;100.00;94237.47;5111046;28;20108;-69
2022/10/06 04:32:58;;;;;;;9.52;6.30;;;;;;;3.81;100.00;94237.19;5110808;28;20089;-69
2022/10/06 04:35:26;;;;;;;10.57;6.72;;;;;;;3.82;100.00;94235.44;5111023;28;20073;-69
2022/10/06 04:37:55;;;;;;;9.75;5.82;;;;;;;3.85;100.00;94235.16;5111093;28;20047;-69
2022/10/06 04:40:21;;;;;;;11.82;5.72;;;;;;;3.88;100.00;94237.41;5110446;28;20491;-69
2022/10/06 04:42:49;;;;;;;9.57;6.65;;;;;;;3.78;100.00;94216.31;5110154;28;20043;-69
2022/10/06 04:45:16;;;;;;;10.35;6.18;;;;;;;3.98;100.00;94242.47;5110533;28;20039;-70
2022/10/06 04:47:42;;;;;;;15.45;9.77;;;;;;;3.99;100.00;94249.13;5110411;28;20491;-69
2022/10/06 04:50:11;;;;;;;99.13;45.20;;;;;;;4.03;100.00;94254.72;5101555;28;20036;-69
2022/10/06 04:52:37;;;;;;;58.70;30.23;;;;;;;4.05;100.00;94250.28;5110432;28;20043;-69
2022/10/06 04:55:05;;;;;;;60.75;31.73;;;;;;;4.06;100.00;94251.88;5110508;28;20091;-69
2022/10/06 04:57:32;;;;;;;31.08;16.63;;;;;;;4.08;100.00;94258.44;5110202;28;20051;-69
2022/10/06 05:02:42;;;;;;;20.95;12.38;;;;;;;4.16;100.00;94252.63;5107103;27;20164;-69
2022/10/06 05:05:10;;;;;;;16.70;10.52;;;;;;;4.23;100.00;94258.75;5107677;28;20036;-69
2022/10/06 05:07:37;;;;;;;15.02;9.68;;;;;;;4.27;100.00;94256.72;5100319;28;20044;-69
2022/10/06 05:10:04;;;;;;;18.10;10.95;;;;;;;4.28;100.00;94260.84;5088332;28;20048;-69
2022/10/06 05:12:31;;;;;;;14.40;10.90;;;;;;;4.29;100.00;94262.44;5088751;28;20446;-69
2022/10/06 05:14:58;;;;;;;19.67;13.20;;;;;;;4.32;100.00;94264.72;5089530;28;20043;-69
2022/10/06 05:17:25;;;;;;;19.95;12.40;;;;;;;4.34;100.00;94269.63;5089804;28;20055;-69
2022/10/06 05:19:51;;;;;;;18.20;12.52;;;;;;;4.36;100.00;94260.13;5098982;28;20043;-69
2022/10/06 05:22:20;;;;;;;18.85;10.98;;;;;;;4.29;100.00;94259.91;5110113;28;20039;-69
2022/10/06 05:24:49;;;;;;;17.85;11.13;;;;;;;4.38;100.00;94266.69;5110149;28;20104;-69
2022/10/06 05:27:16;;;;;;;22.85;12.13;;;;;;;4.41;100.00;94265.59;5110092;28;20043;-69
2022/10/06 05:29:43;;;;;;;25.13;15.60;;;;;;;4.46;100.00;94263.41;5109543;28;20051;-69
2022/10/06 05:32:09;;;;;;;20.17;14.00;;;;;;;4.51;100.00;94257.88;5109636;28;20448;-69
2022/10/06 05:34:36;;;;;;;23.25;15.63;;;;;;;4.65;100.00;94262.47;5109656;28;20051;-69
2022/10/06 05:37:03;;;;;;;18.35;10.85;;;;;;;4.71;100.00;94255.97;5109342;28;20051;-69
2022/10/06 05:39:31;;;;;;;16.25;10.60;;;;;;;4.87;100.00;94264.69;5109638;28;20097;-69
2022/10/06 05:41:58;;;;;;;11.02;7.07;;;;;;;5.00;100.00;94261.75;5109722;28;20142;-69
2022/10/06 05:44:24;;;;;;;8.88;6.38;;;;;;;5.13;100.00;94261.38;5109725;28;20048;-69
2022/10/06 05:46:51;;;;;;;9.68;5.90;;;;;;;5.26;100.00;94256.66;5109408;28;20441;-69
2022/10/06 05:49:18;;;;;;;9.77;4.90;;;;;;;5.41;100.00;94263.75;5109579;28;20047;-69
2022/10/06 05:51:44;;;;;;;11.93;7.95;;;;;;;5.53;100.00;94265.09;5109364;28;20044;-69
2022/10/06 05:54:13;;;;;;;27.88;15.55;;;;;;;5.66;100.00;94264.69;5108819;28;20047;-69
2022/10/06 05:56:41;;;;;;;17.75;11.25;;;;;;;5.80;100.00;94273.50;5109261;28;20052;-69
2022/10/06 05:59:07;;;;;;;17.52;9.80;;;;;;;5.91;100.00;94271.59;5109602;28;20043;-69
2022/10/06 06:01:38;;;;;;;13.82;8.68;;;;;;;6.03;100.00;94269.59;5121479;27;20429;-69
2022/10/06 06:04:08;;;;;;;16.60;9.85;;;;;;;6.12;100.00;94268.69;5115839;27;20423;-69
2022/10/06 06:06:36;;;;;;;27.65;18.08;;;;;;;6.24;100.00;94269.16;5130024;27;20107;-69
2022/10/06 06:09:06;;;;;;;14.95;9.95;;;;;;;6.35;100.00;94278.31;5129880;27;20047;-69
2022/10/06 06:11:34;;;;;;;10.88;7.50;;;;;;;6.45;100.00;94276.41;5130320;27;20383;-69
2022/10/06 06:14:04;;;;;;;8.65;5.85;;;;;;;6.57;100.00;94276.88;5130117;27;20046;-69
2022/10/06 06:16:30;;;;;;;33.92;23.45;;;;;;;6.72;100.00;94277.09;5130033;27;20100;-69
2022/10/06 06:18:58;;;;;;;23.73;16.52;;;;;;;6.84;100.00;94275.00;5127877;28;20051;-69
2022/10/06 06:21:25;;;;;;;24.58;17.40;;;;;;;6.94;100.00;94277.38;5118105;28;20039;-69
2022/10/06 06:23:52;;;;;;;10.77;6.45;;;;;;;7.02;100.00;94285.03;5130024;28;20449;-69
2022/10/06 06:26:22;;;;;;;10.27;6.70;;;;;;;7.09;100.00;94285.22;5130179;28;20043;-69
2022/10/06 06:28:49;;;;;;;12.50;9.10;;;;;;;7.10;100.00;94279.13;5130093;28;20131;-69
2022/10/06 06:31:20;;;;;;;11.38;7.38;;;;;;;7.22;100.00;94277.03;5130112;28;20043;-69
2022/10/06 06:33:47;;;;;;;15.27;5.97;;;;;;;7.35;100.00;94274.78;5130079;28;20453;-69
2022/10/06 06:36:16;;;;;;;10.45;6.15;;;;;;;7.41;100.00;94275.09;5129941;28;20448;-69
2022/10/06 06:38:45;;;;;;;9.70;5.85;;;;;;;7.31;100.00;94259.94;5129759;28;20051;-70
2022/10/06 06:41:16;;;;;;;9.60;4.82;;;;;;;7.47;100.00;94277.81;5129680;28;20552;-69
2022/10/06 06:43:44;;;;;;;10.77;6.40;;;;;;;7.61;100.00;94276.34;5129765;28;20407;-69
2022/10/06 06:46:11;;;;;;;8.45;5.72;;;;;;;7.68;100.00;94271.34;5129978;28;21096;-69
2022/10/06 06:48:39;;;;;;;10.10;4.88;;;;;;;7.83;100.00;94276.56;5129898;28;20049;-69
2022/10/06 06:51:06;;;;;;;7.32;4.75;;;;;;;8.00;100.00;94279.84;5129812;28;20103;-69
2022/10/06 06:53:33;;;;;;;6.20;4.10;;;;;;;8.18;100.00;94278.81;5129612;28;20055;-69
2022/10/06 06:56:01;;;;;;;8.15;5.60;;;;;;;8.10;100.00;94278.88;5129743;28;20047;-69
2022/10/06 06:58:27;;;;;;;9.55;5.40;;;;;;;8.25;100.00;94286.63;5129416;28;20054;-69
2022/10/06 07:00:54;;;;;;;10.18;5.70;;;;;;;8.41;100.00;94283.16;5129884;28;20092;-69
2022/10/06 07:03:22;;;;;;;9.88;4.60;;;;;;;8.53;100.00;94271.59;5129184;28;20093;-69
2022/10/06 07:05:50;;;;;;;5.00;2.72;;;;;;;8.42;100.00;94248.91;5132401;27;20050;-69
2022/10/06 07:08:19;;;;;;;11.27;5.78;;;;;;;8.81;100.00;94277.97;5133587;27;20092;-69
2022/10/06 07:10:47;;;;;;;16.75;7.75;;;;;;;8.93;100.00;94265.53;5133793;27;20478;-69
2022/10/06 07:13:15;;;;;;;21.15;11.27;;;;;;;9.15;100.00;94271.59;5133249;27;20040;-69
2022/10/06 07:26:43;;;;;;;19.88;8.93;;;;;;;10.24;100.00;94279.72;5113386;27;20051;-70
2022/10/06 07:29:09;;;;;;;21.48;10.20;;;;;;;10.25;96.48;94271.06;5118367;27;20091;-69
2022/10/06 07:31:36;;;;;;;22.85;11.18;;;;;;;10.44;97.79;94271.47;5113547;27;20047;-69
2022/10/06 07:34:05;;;;;;;19.35;9.60;;;;;;;10.61;92.00;94276.38;5111873;28;20043;-69
2022/10/06 07:36:34;;;;;;;17.52;8.55;;;;;;;10.71;91.79;94276.88;5129964;27;20372;-69
2022/10/06 07:39:00;;;;;;;17.98;8.45;;;;;;;10.80;91.33;94274.97;5132484;27;20047;-69
2022/10/06 07:41:29;;;;;;;16.35;8.07;;;;;;;10.88;93.97;94266.34;5132619;27;20512;-69
2022/10/06 07:43:55;;;;;;;18.85;9.13;;;;;;;11.14;92.95;94257.22;5132840;27;20043;-69
2022/10/06 07:46:22;;;;;;;18.58;8.23;;;;;;;11.31;92.88;94262.91;5132402;27;20555;-69
2022/10/06 07:48:49;;;;;;;17.55;7.43;;;;;;;11.54;93.98;94257.50;5132744;27;20047;-69
2022/10/06 07:51:17;;;;;;;13.77;6.80;;;;;;;11.77;96.74;94246.91;5132413;27;20108;-69
2022/10/06 07:53:49;;;;;;;14.38;6.15;;;;;;;12.05;90.33;94262.50;5132516;27;20047;-69
2022/10/06 07:56:19;;;;;;;14.27;6.97;;;;;;;12.10;86.66;94265.31;5132329;27;20047;-70
2022/10/06 07:58:46;;;;;;;12.48;6.40;;;;;;;12.31;87.03;94263.59;5132162;27;20124;-69
2022/10/06 08:01:14;;;;;;;10.02;5.60;;;;;;;12.14;85.46;94261.38;5130232;27;20043;-69
2022/10/06 08:03:42;;;;;;;13.70;4.95;;;;;;;11.98;87.74;94263.25;5113845;27;20060;-69
2022/10/06 08:06:12;;;;;;;12.20;5.50;;;;;;;12.26;90.78;94261.59;5132239;27;20530;-69
2022/10/06 08:08:39;;;;;;;15.80;5.25;;;;;;;12.53;88.44;94266.81;5131909;27;20054;-70
2022/10/06 08:11:08;;;;;;;11.68;4.85;;;;;;;12.76;85.96;94255.34;5132396;27;20044;-70
2022/10/06 08:13:35;;;;;;;12.88;4.60;;;;;;;12.77;84.09;94265.47;5131911;27;20043;-70
2022/10/06 08:16:06;;;;;;;12.75;5.68;;;;;;;12.93;86.18;94266.88;5131896;27;20099;-70
2022/10/06 08:18:33;;;;;;;10.35;5.20;;;;;;;13.04;82.04;94257.75;5132211;27;20054;-70
2022/10/06 08:21:00;;;;;;;17.52;4.70;;;;;;;12.89;83.58;94262.28;5117253;27;20514;-70
2022/10/06 08:23:26;;;;;;;10.63;4.13;;;;;;;12.78;82.26;94266.28;5132164;27;20051;-70
2022/10/06 08:25:55;;;;;;;11.45;3.13;;;;;;;12.72;80.34;94262.69;5131897;27;20088;-70
2022/10/06 08:28:23;;;;;;;12.05;3.40;;;;;;;12.84;79.16;94265.47;5131669;27;20055;-70
2022/10/06 08:30:51;;;;;;;12.02;4.20;;;;;;;13.12;83.61;94256.75;5131724;27;20043;-70
2022/10/06 08:33:19;;;;;;;18.10;5.18;;;;;;;13.43;81.45;94257.13;5131620;27;20043;-70
2022/10/06 08:35:46;;;;;;;10.55;4.80;;;;;;;13.18;80.71;94255.16;5131451;27;20039;-70
2022/10/06 08:38:13;;;;;;;10.23;3.38;;;;;;;13.54;82.21;94253.94;5131680;27;20087;-70
2022/10/06 08:40:42;;;;;;;9.95;3.78;;;;;;;13.93;82.06;94259.19;5131771;27;20441;-70
2022/10/06 08:43:16;;;;;;;15.88;5.43;;;;;;;14.37;82.93;94256.03;5095807;27;20040;-70
2022/10/06 08:45:46;;;;;;;15.07;5.45;;;;;;;14.69;79.97;94267.16;5098510;28;20039;-70
2022/10/06 08:48:17;;;;;;;16.70;5.47;;;;;;;14.70;79.55;94262.81;5102367;28;20092;-70
2022/10/06 08:50:53;;;;;;;20.50;7.20;;;;;;;14.96;77.94;94253.31;5106630;28;20112;-70
2022/10/06 08:53:28;;;;;;;10.57;4.78;;;;;;;15.12;76.72;94246.00;5127440;27;20482;-70
2022/10/06 08:56:03;;;;;;;14.18;4.05;;;;;;;15.38;75.92;94245.00;5119027;27;20043;-70
2022/10/06 08:58:40;;;;;;;11.63;4.57;;;;;;;15.70;79.97;94244.84;5091383;28;20047;-70
2022/10/06 09:01:17;;;;;;;12.10;3.45;;;;;;;15.99;72.95;94247.78;5094851;28;20081;-70
2022/10/06 09:03:47;;;;;;;14.32;4.53;;;;;;;15.68;71.51;94246.09;5098010;27;20488;-70
2022/10/06 09:06:22;;;;;;;10.93;3.22;;;;;;;15.76;72.65;94246.63;5107333;27;20058;-70
2022/10/06 09:08:53;;;;;;;5.88;2.63;;;;;;;16.15;77.04;94248.16;5119785;27;20135;-70
2022/10/06 09:11:38;;;;;;;10.70;2.95;;;;;;;16.36;76.88;94244.34;5130802;27;20042;-70
2022/10/06 09:14:13;;;;;;;7.45;2.75;;;;;;;16.60;71.58;94248.78;5131018;27;20070;-70
2022/10/06 09:16:46;;;;;;;15.95;4.45;;;;;;;16.78;70.95;94246.16;5130599;27;20490;-70
2022/10/06 09:19:19;;;;;;;10.50;2.90;;;;;;;17.03;69.08;94259.97;5126803;27;20100;-70
2022/10/06 09:21:50;;;;;;;8.40;3.13;;;;;;;17.19;69.71;94238.56;5119876;27;20047;-70
2022/10/06 09:24:18;;;;;;;7.43;2.13;;;;;;;16.13;69.73;94247.59;5089575;28;20695;-70
2022/10/06 09:26:49;;;;;;;10.32;2.60;;;;;;;16.38;70.79;94241.53;5119339;27;20039;-70
2022/10/06 09:29:17;;;;;;;6.65;2.60;;;;;;;16.76;71.66;94235.19;5111626;27;20040;-70
2022/10/06 09:31:49;;;;;;;6.20;2.85;;;;;;;16.98;72.87;94237.25;5089428;28;20051;-70
2022/10/06 09:34:24;;;;;;;9.00;3.28;;;;;;;17.19;68.65;94235.97;5099743;27;20051;-70
2022/10/06 09:36:59;;;;;;;6.18;2.80;;;;;;;17.54;70.00;94230.97;5089642;28;20454;-70
2022/10/06 09:39:31;;;;;;;12.02;3.25;;;;;;;17.86;70.81;94220.97;5113350;27;20503;-70
2022/10/06 09:42:02;;;;;;;6.88;2.70;;;;;;;18.14;70.10;94226.44;5118926;27;20122;-70
2022/10/06 09:44:32;;;;;;;8.75;2.83;;;;;;;18.32;68.62;94222.88;5130235;27;20067;-70
2022/10/06 09:47:00;;;;;;;7.93;2.67;;;;;;;18.36;67.05;94218.78;5091312;27;20056;-70
2022/10/06 09:49:30;;;;;;;7.32;2.25;;;;;;;18.49;68.81;94216.91;5100127;27;20555;-70
2022/10/06 09:52:03;;;;;;;6.32;2.40;;;;;;;18.55;62.32;94224.59;5122840;27;20052;-70
2022/10/06 09:54:33;;;;;;;6.97;2.72;;;;;;;18.74;64.42;94216.56;5123537;27;20390;-71
2022/10/06 09:57:09;;;;;;;5.45;2.55;;;;;;;18.67;60.67;94223.72;5088555;28;20135;-71
2022/10/06 09:59:37;;;;;;;;;;;;;;;18.68;62.95;94214.91;5089392;28;20094;-70
2022/10/06 10:02:05;;;;;;;7.93;2.15;;;;;;;18.56;62.55;94213.16;5089507;28;19920;-71
2022/10/06 10:04:36;;;;;;;6.60;2.63;;;;;;;18.86;63.23;94210.47;5089020;28;20048;-70
2022/10/06 10:07:24;;;;;;;6.00;2.33;;;;;;;18.05;57.59;94181.78;5093054;28;20504;-71
2022/10/06 10:09:53;;;;;;;7.88;2.00;;;;;;;18.40;63.71;94204.31;5107329;28;20048;-71
2022/10/06 10:12:26;;;;;;;5.80;2.17;;;;;;;18.41;62.25;94212.88;5089382;28;20040;-71
2022/10/06 10:14:56;;;;;;;7.82;2.33;;;;;;;18.24;64.33;94205.84;5092709;28;20060;-71
2022/10/06 10:17:34;;;;;;;6.28;2.75;;;;;;;18.62;62.02;94198.44;5090031;28;20059;-70
2022/10/06 10:20:07;;;;;;;5.80;1.75;;;;;;;18.80;64.29;94200.00;5118859;28;20055;-70
2022/10/06 10:22:36;;;;;;;6.47;2.42;;;;;;;18.70;59.28;94205.84;5127736;28;20047;-71
2022/10/06 10:25:14;;;;;;;6.55;1.95;;;;;;;18.90;59.79;94198.59;5123161;28;20105;-71
2022/10/06 10:27:52;;;;;;;8.00;2.08;;;;;;;19.18;62.61;94182.09;5094384;28;20040;-70
2022/10/06 10:30:19;;;;;;;6.55;2.17;;;;;;;19.37;61.90;94181.81;5099295;28;20563;-70
2022/10/06 10:32:56;;;;;;;4.40;1.75;;;;;;;19.34;58.60;94182.28;5100913;28;20048;-71
2022/10/06 10:35:27;;;;;;;9.10;1.83;;;;;;;19.49;60.32;94181.72;5106165;28;20051;-71
2022/10/06 10:38:00;;;;;;;5.88;1.67;;;;;;;19.58;57.63;94182.88;5127770;28;20050;-71
2022/10/06 10:40:47;;;;;;;2.97;1.45;;;;;;;19.58;53.66;94182.09;5132372;27;20082;-70
2022/10/06 10:43:23;;;;;;;5.13;1.55;;;;;;;18.92;54.96;94141.84;5133979;27;20042;-70
2022/10/06 10:45:55;;;;;;;3.25;1.85;;;;;;;19.19;56.48;94160.25;5133906;27;20039;-70
2022/10/06 10:48:30;;;;;;;4.25;1.70;;;;;;;19.41;53.30;94146.44;5133803;27;20088;-70
2022/10/06 10:51:04;;;;;;;3.90;1.67;;;;;;;19.40;53.70;94152.69;5133660;27;20051;-71
2022/10/06 10:53:40;;;;;;;4.45;2.20;;;;;;;18.87;55.48;94145.19;5133931;27;20035;-70
2022/10/06 10:56:10;;;;;;;3.45;1.35;;;;;;;19.08;52.66;94151.47;5133824;27;20039;-70
2022/10/06 10:58:40;;;;;;;3.17;0.90;;;;;;;18.96;42.44;94141.16;5133576;27;20050;-71
2022/10/06 11:01:17;;;;;;;1.77;0.60;;;;;;;18.87;32.53;94129.56;5133561;27;20415;-71
2022/10/06 11:03:55;;;;;;;1.85;0.68;;;;;;;19.07;33.77;94129.06;5133782;27;20051;-71
2022/10/06 11:06:55;;;;;;;2.10;0.63;;;;;;;19.26;37.68;94126.22;5133179;27;20495;-70
2022/10/06 11:09:28;;;;;;;2.10;0.57;;;;;;;19.57;33.83;94125.78;5133304;27;20116;-71
2022/10/06 11:12:12;;;;;;;2.03;0.70;;;;;;;19.29;33.16;94124.91;5133536;27;20065;-71
2022/10/06 11:14:50;;;;;;;1.67;0.50;;;;;;;19.13;34.07;94122.13;5133635;27;20096;-71
2022/10/06 11:17:28;;;;;;;1.58;0.55;;;;;;;18.82;34.75;94125.06;5133525;27;20111;-71
2022/10/06 11:20:09;;;;;;;3.10;0.77;;;;;;;18.65;37.24;94106.09;5115479;27;20052;-71
2022/10/06 11:22:42;;;;;;;1.10;0.50;;;;;;;18.61;36.51;94110.97;5129113;27;20043;-71
2022/10/06 11:25:21;;;;;;;1.48;0.63;;;;;;;18.58;35.60;94108.84;5133390;27;20107;-71
2022/10/06 11:27:58;;;;;;;1.50;0.70;;;;;;;18.72;35.23;94116.31;5132965;27;20047;-71
2022/10/06 11:30:26;;;;;;;2.60;0.60;;;;;;;18.67;34.47;94110.03;5133263;27;20051;-71
2022/10/06 11:33:03;;;;;;;1.63;0.65;;;;;;;18.36;35.69;94101.75;5132920;27;20122;-71
2022/10/06 11:35:36;;;;;;;1.95;0.52;;;;;;;18.41;35.08;94104.44;5132201;27;20108;-71
2022/10/06 11:38:10;;;;;;;1.00;0.40;;;;;;;18.44;36.58;94095.38;5101353;27;20043;-71
2022/10/06 11:40:48;;;;;;;1.85;0.93;;;;;;;18.46;37.30;94093.31;5131134;27;20047;-71
2022/10/06 11:43:22;;;;;;;4.35;1.17;;;;;;;18.49;38.82;94097.25;5132778;27;20039;-71
2022/10/06 11:45:58;;;;;;;2.15;0.60;;;;;;;18.50;38.67;94097.03;5132898;27;20226;-71
2022/10/06 11:48:28;;;;;;;1.77;0.60;;;;;;;18.28;37.47;94096.91;5123472;27;20043;-71
2022/10/06 11:50:57;;;;;;;1.33;0.65;;;;;;;18.36;37.64;94072.34;5132253;27;20475;-70
2022/10/06 11:53:38;;;;;;;1.08;0.55;;;;;;;18.38;38.36;94091.88;5122610;27;20047;-71